Time;durP1;ratioP1;P1;durP2;ratioP2;P2;SDS_P1;SDS_P2;PMS_P1;PMS_P2;Temp;Humidity;BMP_temperature;BMP_pressure;BME280_temperature;BME280_humidity;BME280_pressure;Samples;Min_cycle;Max_cycle;Signal;HPM_P1;HPM_P2
2022/10/16 00:01:47;;;;;;;1.20;0.80;;;24.80;68.00;;;;;;5053748;28;20463;-84
2022/10/16 00:04:14;;;;;;;1.07;0.97;;;24.90;68.30;;;;;;5054169;28;20442;-84
2022/10/16 00:06:42;;;;;;;0.80;0.70;;;24.80;68.00;;;;;;5054695;28;20444;-85
2022/10/16 00:09:09;;;;;;;1.63;0.90;;;24.80;68.00;;;;;;5054263;28;20442;-84
2022/10/16 00:11:38;;;;;;;0.90;0.80;;;24.80;68.00;;;;;;5054365;28;20481;-84
2022/10/16 00:14:08;;;;;;;0.80;0.67;;;24.80;68.00;;;;;;5054531;28;20451;-84
2022/10/16 00:16:35;;;;;;;0.90;0.80;;;24.80;68.00;;;;;;5054588;28;20430;-84
2022/10/16 00:19:02;;;;;;;0.80;0.80;;;24.80;68.00;;;;;;5054554;28;20935;-85
2022/10/16 00:21:31;;;;;;;0.97;0.87;;;24.80;68.00;;;;;;5054313;28;20479;-85
2022/10/16 00:24:02;;;;;;;0.80;0.80;;;24.90;68.10;;;;;;5054165;28;20934;-85
2022/10/16 00:26:32;;;;;;;1.00;0.90;;;24.80;68.00;;;;;;5054670;28;20430;-84
2022/10/16 00:28:58;;;;;;;1.87;0.80;;;24.80;68.00;;;;;;5054375;28;20434;-85
2022/10/16 00:31:25;;;;;;;1.10;0.90;;;24.80;68.00;;;;;;5053968;28;20551;-85
2022/10/16 00:33:53;;;;;;;0.90;0.80;;;24.80;68.00;;;;;;5054330;28;20467;-85
2022/10/16 00:36:23;;;;;;;0.80;0.77;;;24.80;68.00;;;;;;5054353;28;20439;-84
2022/10/16 00:38:52;;;;;;;0.87;0.80;;;24.80;68.00;;;;;;5054920;28;20937;-85
2022/10/16 00:41:21;;;;;;;0.80;0.70;;;24.80;68.00;;;;;;5053818;28;20443;-84
2022/10/16 00:43:51;;;;;;;0.80;0.70;;;24.80;68.00;;;;;;5053882;28;20526;-84
2022/10/16 00:46:21;;;;;;;1.00;0.77;;;24.80;68.00;;;;;;5054056;28;20427;-85
2022/10/16 00:48:53;;;;;;;0.80;0.70;;;24.80;68.00;;;;;;5053531;28;20443;-84
2022/10/16 00:51:26;;;;;;;0.80;0.80;;;24.80;68.00;;;;;;5054297;28;20802;-84
2022/10/16 00:53:53;;;;;;;0.90;0.80;;;24.80;68.00;;;;;;5053938;28;20477;-84
2022/10/16 00:56:21;;;;;;;1.00;0.90;;;24.80;67.90;;;;;;5054062;28;20526;-84
2022/10/16 00:58:48;;;;;;;0.80;0.77;;;24.80;68.00;;;;;;5053412;28;20445;-84
2022/10/16 01:01:15;;;;;;;0.80;0.70;;;24.80;68.00;;;;;;5053471;28;20456;-84
2022/10/16 01:03:42;;;;;;;1.00;0.90;;;24.80;68.00;;;;;;5053780;28;20443;-84
2022/10/16 01:06:23;;;;;;;0.80;0.70;;;24.80;67.90;;;;;;5053713;28;21005;-85
2022/10/16 01:08:59;;;;;;;0.90;0.80;;;24.80;67.90;;;;;;5053081;28;20521;-84
2022/10/16 01:11:35;;;;;;;0.97;0.87;;;24.80;67.90;;;;;;5053515;28;20477;-85
2022/10/16 01:14:10;;;;;;;0.80;0.70;;;24.80;67.90;;;;;;5053369;28;20459;-84
2022/10/16 01:16:42;;;;;;;0.80;0.73;;;24.80;68.00;;;;;;5053631;28;20439;-85
2022/10/16 01:19:14;;;;;;;0.80;0.80;;;24.80;67.90;;;;;;5054073;28;20878;-85
2022/10/16 01:21:44;;;;;;;0.80;0.80;;;24.80;67.90;;;;;;5053418;28;20485;-85
2022/10/16 01:24:19;;;;;;;0.90;0.80;;;24.80;67.90;;;;;;5053235;28;20928;-84
2022/10/16 01:27:08;;;;;;;1.00;0.90;;;24.80;67.90;;;;;;5053383;28;20445;-84
2022/10/16 01:29:41;;;;;;;0.80;0.80;;;24.80;67.80;;;;;;5053447;28;20786;-84
2022/10/16 01:32:14;;;;;;;0.80;0.70;;;24.80;67.90;;;;;;5053355;28;20848;-85
2022/10/16 01:34:48;;;;;;;0.90;0.80;;;24.80;67.90;;;;;;5053300;28;20923;-85
2022/10/16 01:37:19;;;;;;;0.87;0.80;;;24.80;67.90;;;;;;5053483;28;20448;-84
2022/10/16 01:39:50;;;;;;;1.03;0.70;;;24.80;67.90;;;;;;5053315;28;20446;-84
2022/10/16 01:42:22;;;;;;;0.90;0.70;;;24.80;67.90;;;;;;5053449;28;20473;-84
2022/10/16 01:44:51;;;;;;;0.80;0.70;;;24.80;67.90;;;;;;5053090;28;20459;-85
2022/10/16 01:47:22;;;;;;;0.97;0.80;;;24.80;67.80;;;;;;5053250;28;20933;-85
2022/10/16 01:49:50;;;;;;;0.97;0.90;;;24.80;67.80;;;;;;5053153;28;20445;-84
2022/10/16 01:52:21;;;;;;;0.80;0.70;;;24.80;67.80;;;;;;5052951;28;20485;-84
2022/10/16 01:54:51;;;;;;;0.80;0.80;;;24.80;67.80;;;;;;5053131;28;20443;-84
2022/10/16 01:57:21;;;;;;;0.80;0.70;;;24.80;67.80;;;;;;5053015;28;20441;-84
2022/10/16 01:59:53;;;;;;;0.90;0.80;;;24.70;67.70;;;;;;5053124;28;20441;-84
2022/10/16 02:02:23;;;;;;;0.80;0.80;;;24.80;67.80;;;;;;5052829;28;20470;-84
2022/10/16 02:04:55;;;;;;;0.80;0.80;;;24.80;67.80;;;;;;5053050;28;20447;-84
2022/10/16 02:07:23;;;;;;;0.80;0.77;;;24.80;67.80;;;;;;5052990;28;20810;-84
2022/10/16 02:09:50;;;;;;;0.80;0.70;;;24.80;67.80;;;;;;5053184;28;20563;-85
2022/10/16 02:12:24;;;;;;;0.80;0.70;;;24.70;67.60;;;;;;5052990;28;20838;-84
2022/10/16 02:14:51;;;;;;;1.30;0.80;;;24.70;67.60;;;;;;5053027;28;20469;-85
2022/10/16 02:17:19;;;;;;;1.10;0.70;;;24.80;67.80;;;;;;5052965;28;21044;-84
2022/10/16 02:19:48;;;;;;;0.80;0.77;;;24.70;67.60;;;;;;5053235;28;20789;-84
2022/10/16 02:22:22;;;;;;;0.87;0.77;;;24.70;67.60;;;;;;5056639;28;20532;-85
2022/10/16 02:24:55;;;;;;;0.80;0.73;;;24.70;67.60;;;;;;5056825;28;20443;-85
2022/10/16 02:27:29;;;;;;;0.90;0.77;;;24.80;67.80;;;;;;5056532;28;20447;-85
2022/10/16 02:30:00;;;;;;;1.07;0.80;;;24.70;67.60;;;;;;5056809;28;20438;-84
2022/10/16 02:32:32;;;;;;;0.80;0.70;;;24.80;67.80;;;;;;5056443;28;20497;-84
2022/10/16 02:35:00;;;;;;;1.00;0.80;;;24.70;67.60;;;;;;5056415;28;20527;-84
2022/10/16 02:37:28;;;;;;;0.80;0.70;;;24.70;67.60;;;;;;5056438;28;20449;-85
2022/10/16 02:39:57;;;;;;;0.77;0.60;;;24.70;67.60;;;;;;5056251;28;20432;-84
2022/10/16 02:42:30;;;;;;;1.10;0.70;;;24.70;67.60;;;;;;5056283;28;20447;-85
2022/10/16 02:44:57;;;;;;;0.90;0.80;;;24.80;67.70;;;;;;5056317;28;20914;-85
2022/10/16 02:47:24;;;;;;;0.80;0.70;;;24.70;67.60;;;;;;5056286;28;20606;-84
2022/10/16 02:49:51;;;;;;;0.80;0.80;;;24.70;67.60;;;;;;5056345;28;20802;-84
2022/10/16 02:52:17;;;;;;;0.80;0.70;;;24.70;67.60;;;;;;5056156;28;21072;-84
2022/10/16 02:54:44;;;;;;;1.03;0.93;;;24.70;67.60;;;;;;5056497;28;20467;-85
2022/10/16 02:57:11;;;;;;;0.80;0.70;;;24.70;67.60;;;;;;5055924;28;20435;-84
2022/10/16 02:59:39;;;;;;;1.70;0.80;;;24.70;67.60;;;;;;5055963;28;20450;-85
2022/10/16 03:02:06;;;;;;;0.80;0.70;;;24.70;67.60;;;;;;5056161;28;20563;-85
2022/10/16 03:04:33;;;;;;;0.80;0.77;;;24.70;67.60;;;;;;5056002;28;20474;-85
2022/10/16 03:07:00;;;;;;;0.80;0.70;;;24.70;67.60;;;;;;5055989;28;20538;-84
2022/10/16 03:09:27;;;;;;;0.90;0.80;;;24.70;67.60;;;;;;5056036;28;20439;-85
2022/10/16 03:11:53;;;;;;;0.80;0.70;;;24.70;67.60;;;;;;5055899;28;20503;-85
2022/10/16 03:14:20;;;;;;;0.80;0.73;;;24.70;68.40;;;;;;5055843;28;20445;-84
2022/10/16 03:16:48;;;;;;;0.80;0.70;;;24.70;67.60;;;;;;5055983;28;20444;-85
2022/10/16 03:19:17;;;;;;;0.80;0.70;;;24.70;67.60;;;;;;5055694;28;20787;-84
2022/10/16 03:21:44;;;;;;;1.10;0.80;;;24.70;67.60;;;;;;5055493;28;20492;-85
2022/10/16 03:24:11;;;;;;;0.80;0.60;;;24.70;67.60;;;;;;5055286;28;20445;-84
2022/10/16 03:26:38;;;;;;;0.80;0.70;;;24.70;67.60;;;;;;5055678;28;20439;-84
2022/10/16 03:29:05;;;;;;;0.83;0.70;;;24.70;67.50;;;;;;5055195;28;20454;-84
2022/10/16 03:31:32;;;;;;;0.80;0.70;;;24.70;67.50;;;;;;5054813;28;20465;-84
2022/10/16 03:34:00;;;;;;;0.80;0.70;;;24.70;67.50;;;;;;5055612;28;21051;-84
2022/10/16 03:36:27;;;;;;;0.80;0.80;;;24.70;67.50;;;;;;5055356;28;20444;-84
2022/10/16 03:38:54;;;;;;;0.90;0.70;;;24.70;67.60;;;;;;5055156;28;20435;-84
2022/10/16 03:41:20;;;;;;;0.80;0.70;;;24.70;67.50;;;;;;5055222;28;20442;-84
2022/10/16 03:43:47;;;;;;;0.80;0.70;;;24.70;68.40;;;;;;5055078;28;20474;-84
2022/10/16 03:46:14;;;;;;;0.80;0.70;;;24.70;67.60;;;;;;5055441;28;20790;-85
2022/10/16 03:48:41;;;;;;;0.90;0.80;;;24.70;67.60;;;;;;5055156;28;20798;-84
2022/10/16 03:51:09;;;;;;;0.80;0.60;;;24.70;67.60;;;;;;5055127;28;20465;-85
2022/10/16 03:53:36;;;;;;;0.73;0.63;;;24.70;67.60;;;;;;5054822;28;20482;-84
2022/10/16 03:56:02;;;;;;;0.80;0.80;;;24.70;67.50;;;;;;5054928;28;20453;-84
2022/10/16 03:58:29;;;;;;;0.83;0.70;;;24.70;67.50;;;;;;5055161;28;20445;-84
2022/10/16 04:00:56;;;;;;;0.73;0.60;;;24.70;67.50;;;;;;5054615;28;20443;-84
2022/10/16 04:03:23;;;;;;;0.80;0.70;;;24.70;67.50;;;;;;5054849;28;20550;-84
2022/10/16 04:05:50;;;;;;;0.80;0.70;;;24.70;67.50;;;;;;5054729;28;20912;-85
2022/10/16 04:08:18;;;;;;;0.80;0.70;;;24.70;67.50;;;;;;5054720;28;20449;-85
2022/10/16 04:10:45;;;;;;;0.80;0.70;;;24.70;67.50;;;;;;5054738;28;20489;-84
2022/10/16 04:13:12;;;;;;;0.80;0.70;;;24.70;67.50;;;;;;5054169;28;21019;-84
2022/10/16 04:15:39;;;;;;;0.90;0.80;;;24.70;67.50;;;;;;5054615;28;20457;-84
2022/10/16 04:18:06;;;;;;;0.93;0.70;;;24.70;67.50;;;;;;5054493;28;20553;-84
2022/10/16 04:20:34;;;;;;;0.80;0.73;;;24.70;67.50;;;;;;5054081;28;20499;-85
2022/10/16 04:23:01;;;;;;;0.70;0.60;;;24.70;68.30;;;;;;5054180;28;20443;-84
2022/10/16 04:25:29;;;;;;;0.80;0.70;;;24.70;67.50;;;;;;5053827;28;20448;-84
2022/10/16 04:27:57;;;;;;;0.77;0.60;;;24.60;67.30;;;;;;5053993;28;20438;-84
2022/10/16 04:30:24;;;;;;;0.90;0.70;;;24.70;67.50;;;;;;5054349;28;20446;-85
2022/10/16 04:32:52;;;;;;;0.80;0.73;;;24.70;67.40;;;;;;5054190;28;20500;-85
2022/10/16 04:35:19;;;;;;;1.33;0.80;;;24.70;67.40;;;;;;5054135;28;20449;-84
2022/10/16 04:37:46;;;;;;;0.80;0.60;;;24.70;67.40;;;;;;5054268;28;20818;-85
2022/10/16 04:40:13;;;;;;;0.80;0.80;;;24.70;67.40;;;;;;5054341;28;20444;-85
2022/10/16 04:42:42;;;;;;;1.00;0.80;;;24.70;68.20;;;;;;5053187;28;20469;-85
2022/10/16 04:45:10;;;;;;;0.80;0.60;;;24.70;67.40;;;;;;5054025;28;20525;-84
2022/10/16 04:47:36;;;;;;;1.10;0.80;;;24.70;67.40;;;;;;5053640;28;20469;-84
2022/10/16 04:50:04;;;;;;;0.80;0.63;;;24.70;67.40;;;;;;5053912;28;20450;-84
2022/10/16 04:52:31;;;;;;;0.80;0.60;;;24.70;67.40;;;;;;5054073;28;20497;-85
2022/10/16 04:55:01;;;;;;;0.80;0.70;;;24.70;67.30;;;;;;5054337;28;20445;-84
2022/10/16 04:57:28;;;;;;;0.90;0.73;;;24.60;67.20;;;;;;5053713;28;20447;-84
2022/10/16 04:59:56;;;;;;;0.83;0.73;;;24.70;67.40;;;;;;5053986;28;20454;-84
2022/10/16 05:02:23;;;;;;;0.80;0.70;;;24.70;67.40;;;;;;5053585;28;20981;-85
2022/10/16 05:04:49;;;;;;;0.80;0.70;;;24.60;67.20;;;;;;5053723;28;20439;-84
2022/10/16 05:07:16;;;;;;;0.70;0.60;;;24.60;67.20;;;;;;5053735;28;20975;-85
2022/10/16 05:09:43;;;;;;;0.83;0.73;;;24.60;67.20;;;;;;5053457;28;20439;-85
2022/10/16 05:12:10;;;;;;;0.80;0.70;;;24.60;67.20;;;;;;5053358;28;21017;-85
2022/10/16 05:14:37;;;;;;;0.80;0.70;;;24.60;68.10;;;;;;5053507;28;21041;-85
2022/10/16 05:17:05;;;;;;;0.80;0.60;;;24.60;67.20;;;;;;5053704;28;20521;-84
2022/10/16 05:19:32;;;;;;;0.73;0.70;;;24.60;67.20;;;;;;5053475;28;20446;-85
2022/10/16 05:21:59;;;;;;;0.80;0.67;;;24.60;67.20;;;;;;5053161;28;20475;-84
2022/10/16 05:24:25;;;;;;;0.80;0.70;;;24.70;67.30;;;;;;5053582;28;20444;-84
2022/10/16 05:26:52;;;;;;;0.80;0.70;;;24.60;67.20;;;;;;5053252;28;20447;-85
2022/10/16 05:29:19;;;;;;;1.03;0.70;;;24.60;67.20;;;;;;5053234;28;20447;-84
2022/10/16 05:31:46;;;;;;;0.80;0.80;;;24.60;67.20;;;;;;5053409;28;20461;-84
2022/10/16 05:34:14;;;;;;;0.80;0.70;;;24.60;67.20;;;;;;5053544;28;20849;-85
2022/10/16 05:36:41;;;;;;;0.80;0.70;;;24.60;67.10;;;;;;5053551;28;20439;-85
2022/10/16 05:39:07;;;;;;;0.80;0.60;;;24.60;67.20;;;;;;5057596;28;20940;-84
2022/10/16 05:41:34;;;;;;;0.80;0.60;;;24.60;67.10;;;;;;5073319;28;20453;-84
2022/10/16 05:44:04;;;;;;;0.80;0.70;;;24.60;67.10;;;;;;5073135;28;20476;-85
2022/10/16 05:46:31;;;;;;;0.80;0.70;;;24.60;67.10;;;;;;5073488;28;20443;-84
2022/10/16 05:48:57;;;;;;;0.90;0.70;;;24.60;67.10;;;;;;5073465;28;20440;-85
2022/10/16 05:51:26;;;;;;;1.33;0.83;;;24.60;67.10;;;;;;5073226;28;20445;-84
2022/10/16 05:53:53;;;;;;;0.80;0.70;;;24.60;67.10;;;;;;5073791;28;20495;-84
2022/10/16 05:56:20;;;;;;;0.80;0.60;;;24.60;67.10;;;;;;5076963;28;20445;-84
2022/10/16 05:58:46;;;;;;;0.80;0.60;;;24.60;67.10;;;;;;5077291;28;20454;-84
2022/10/16 06:01:15;;;;;;;0.70;0.60;;;24.60;67.10;;;;;;5077316;28;20536;-85
2022/10/16 06:03:42;;;;;;;0.80;0.60;;;24.60;67.10;;;;;;5077095;28;20461;-85
2022/10/16 06:06:11;;;;;;;0.80;0.70;;;24.60;67.10;;;;;;5077046;28;20429;-85
2022/10/16 06:08:40;;;;;;;0.77;0.70;;;24.60;67.10;;;;;;5077143;28;20557;-84
2022/10/16 06:11:08;;;;;;;0.80;0.70;;;24.60;67.10;;;;;;5077088;28;20437;-84
2022/10/16 06:13:35;;;;;;;0.80;0.70;;;24.60;67.10;;;;;;5076900;28;20839;-85
2022/10/16 06:16:03;;;;;;;0.80;0.60;;;24.60;67.10;;;;;;5076879;28;20536;-85
2022/10/16 06:18:30;;;;;;;0.80;0.70;;;24.60;67.10;;;;;;5077049;28;20523;-85
2022/10/16 06:20:58;;;;;;;0.80;0.60;;;24.60;67.10;;;;;;5076840;28;20995;-84
2022/10/16 06:23:25;;;;;;;0.70;0.60;;;24.60;67.10;;;;;;5076667;28;20862;-84
2022/10/16 06:25:53;;;;;;;0.80;0.70;;;24.50;67.00;;;;;;5075847;28;20441;-84
2022/10/16 06:28:20;;;;;;;0.87;0.70;;;24.50;67.00;;;;;;5056367;28;20443;-85
2022/10/16 06:30:47;;;;;;;0.80;0.67;;;24.50;67.00;;;;;;5056557;28;20560;-84
2022/10/16 06:33:14;;;;;;;0.80;0.70;;;24.50;67.00;;;;;;5056550;28;20505;-84
2022/10/16 06:35:41;;;;;;;0.80;0.70;;;24.60;67.10;;;;;;5056660;28;20433;-85
2022/10/16 06:38:08;;;;;;;0.80;0.70;;;24.50;67.10;;;;;;5056595;28;20429;-84
2022/10/16 06:40:34;;;;;;;0.80;0.70;;;24.60;67.10;;;;;;5056304;28;20436;-85
2022/10/16 06:43:03;;;;;;;0.80;0.70;;;24.50;67.00;;;;;;5056293;28;20446;-84
2022/10/16 06:45:29;;;;;;;0.80;0.60;;;24.60;67.10;;;;;;5056234;28;20442;-84
2022/10/16 06:47:56;;;;;;;0.70;0.70;;;24.50;67.00;;;;;;5071624;28;20476;-84
2022/10/16 06:50:23;;;;;;;0.80;0.70;;;24.50;67.00;;;;;;5076511;28;20803;-85
2022/10/16 06:52:50;;;;;;;0.70;0.60;;;24.50;67.00;;;;;;5076097;28;20445;-84
2022/10/16 06:55:17;;;;;;;0.80;0.60;;;24.60;67.10;;;;;;5076331;28;20525;-84
2022/10/16 06:57:44;;;;;;;0.80;0.60;;;24.50;67.00;;;;;;5076359;28;20446;-85
2022/10/16 07:00:13;;;;;;;0.70;0.60;;;24.50;67.00;;;;;;5075870;28;20435;-84
2022/10/16 07:02:40;;;;;;;0.80;0.70;;;24.60;67.10;;;;;;5075673;28;20460;-84
2022/10/16 07:05:07;;;;;;;0.80;0.60;;;24.60;67.10;;;;;;5075451;28;21000;-84
2022/10/16 07:07:34;;;;;;;0.80;0.60;;;24.50;67.00;;;;;;5075401;28;20443;-84
2022/10/16 07:10:01;;;;;;;1.30;0.67;;;24.50;67.00;;;;;;5075575;28;20446;-84
2022/10/16 07:12:28;;;;;;;0.80;0.60;;;24.50;67.00;;;;;;5075839;28;20468;-85
2022/10/16 07:14:56;;;;;;;0.80;0.63;;;24.60;67.10;;;;;;5073395;28;20988;-87
2022/10/16 07:17:24;;;;;;;0.73;0.60;;;24.50;67.00;;;;;;5060099;28;20438;-90
2022/10/16 07:19:53;;;;;;;0.80;0.60;;;24.60;67.10;;;;;;5055487;28;20439;-90
2022/10/16 07:22:19;;;;;;;1.53;0.67;;;24.50;67.40;;;;;;5055549;28;20940;-90
2022/10/16 07:24:46;;;;;;;0.80;0.70;;;24.50;67.60;;;;;;5055045;28;20542;-88
2022/10/16 07:27:13;;;;;;;1.07;0.93;;;24.50;67.70;;;;;;5055314;28;20960;-89
2022/10/16 07:29:40;;;;;;;0.90;0.70;;;24.50;67.80;;;;;;5055171;28;20528;-83
2022/10/16 07:32:07;;;;;;;0.97;0.87;;;24.50;68.00;;;;;;5055065;28;20467;-84
2022/10/16 07:34:35;;;;;;;0.90;0.70;;;24.40;67.90;;;;;;5055441;28;20518;-90
2022/10/16 07:37:01;;;;;;;1.40;1.00;;;24.40;67.90;;;;;;5055541;28;20525;-90
2022/10/16 07:39:28;;;;;;;1.90;0.90;;;24.50;67.90;;;;;;5055044;28;20433;-84
2022/10/16 07:41:55;;;;;;;2.03;0.70;;;24.50;67.80;;;;;;5055173;28;20529;-91
2022/10/16 07:44:22;;;;;;;0.80;0.80;;;24.50;67.70;;;;;;5055436;28;20446;-91
2022/10/16 07:46:49;;;;;;;1.90;0.77;;;24.50;67.60;;;;;;5055245;28;20442;-90
2022/10/16 07:49:16;;;;;;;1.67;0.90;;;24.60;67.70;;;;;;5055106;28;20450;-91
2022/10/16 07:51:44;;;;;;;1.50;1.40;;;24.60;67.50;;;;;;5055253;28;20442;-87
2022/10/16 07:54:11;;;;;;;0.80;0.70;;;24.60;67.40;;;;;;5054984;28;20489;-83
2022/10/16 07:56:38;;;;;;;0.90;0.70;;;24.60;67.60;;;;;;5054387;28;20438;-87
2022/10/16 07:59:04;;;;;;;0.83;0.70;;;24.60;67.50;;;;;;5054704;28;20820;-83
2022/10/16 08:01:31;;;;;;;1.20;0.83;;;24.60;67.30;;;;;;5054353;28;20468;-92
2022/10/16 08:03:58;;;;;;;3.00;0.93;;;24.70;67.60;;;;;;5054663;28;20954;-83
2022/10/16 08:06:25;;;;;;;3.13;1.00;;;24.70;67.60;;;;;;5054530;28;20449;-84
2022/10/16 08:08:53;;;;;;;1.20;1.00;;;24.70;67.90;;;;;;5063819;28;20442;-87
2022/10/16 08:11:20;;;;;;;0.80;0.70;;;24.80;68.20;;;;;;5061350;28;20443;-88
2022/10/16 08:13:47;;;;;;;1.07;0.70;;;24.80;67.80;;;;;;5071202;28;20483;-87
2022/10/16 08:16:14;;;;;;;0.90;0.80;;;24.90;67.80;;;;;;5074691;28;20828;-89
2022/10/16 08:18:42;;;;;;;1.10;0.90;;;24.90;67.70;;;;;;5074504;28;20481;-88
2022/10/16 08:21:14;;;;;;;0.90;0.80;;;25.20;68.00;;;;;;5074256;28;20483;-87
2022/10/16 08:23:40;;;;;;;1.00;0.70;;;25.10;67.90;;;;;;5074245;28;20443;-88
2022/10/16 08:26:09;;;;;;;1.00;0.90;;;25.20;67.80;;;;;;5074334;28;20458;-87
2022/10/16 08:28:37;;;;;;;1.00;0.90;;;25.30;67.70;;;;;;5074263;28;20444;-88
2022/10/16 08:31:08;;;;;;;0.97;0.70;;;25.40;67.60;;;;;;5073518;28;20464;-89
2022/10/16 08:33:35;;;;;;;0.80;0.70;;;25.60;67.50;;;;;;5074337;28;20853;-90
2022/10/16 08:36:03;;;;;;;0.90;0.80;;;25.70;67.20;;;;;;5074141;28;20447;-88
2022/10/16 08:38:29;;;;;;;2.20;0.90;;;25.90;67.00;;;;;;5074276;28;20443;-87
2022/10/16 08:41:05;;;;;;;0.93;0.83;;;26.10;66.70;;;;;;5074243;28;20439;-88
2022/10/16 08:43:51;;;;;;;0.80;0.70;;;26.40;66.20;;;;;;5074012;28;20471;-84
2022/10/16 08:46:31;;;;;;;1.10;0.90;;;26.70;65.70;;;;;;5074249;28;20429;-85
2022/10/16 08:49:00;;;;;;;1.90;0.80;;;27.00;65.30;;;;;;5074043;28;20436;-85
2022/10/16 08:51:30;;;;;;;1.20;1.10;;;27.20;64.70;;;;;;5074135;28;20437;-84
2022/10/16 08:53:59;;;;;;;1.63;0.97;;;27.40;65.90;;;;;;5073794;28;20476;-89
2022/10/16 08:56:26;;;;;;;1.07;0.90;;;27.60;64.60;;;;;;5073703;28;20450;-87
2022/10/16 08:58:55;;;;;;;0.90;0.80;;;28.00;69.90;;;;;;5074248;28;20930;-88
2022/10/16 09:01:24;;;;;;;1.00;0.90;;;28.10;77.90;;;;;;5073702;28;20961;-85
2022/10/16 09:04:25;;;;;;;1.00;0.77;;;28.30;72.10;;;;;;5073695;28;20454;-84
2022/10/16 09:06:56;;;;;;;0.90;0.70;;;28.40;73.00;;;;;;5073991;28;20423;-88
2022/10/16 09:09:37;;;;;;;1.10;0.80;;;28.30;66.60;;;;;;5073808;28;20440;-88
2022/10/16 09:12:10;;;;;;;0.80;0.70;;;28.10;68.10;;;;;;5057005;28;20449;-88
2022/10/16 09:14:55;;;;;;;1.17;0.80;;;28.00;68.90;;;;;;5053307;28;20492;-84
2022/10/16 09:17:33;;;;;;;0.93;0.80;;;27.90;68.20;;;;;;5053782;28;20432;-84
2022/10/16 09:20:18;;;;;;;1.10;0.90;;;27.80;70.00;;;;;;5053192;28;20476;-83
2022/10/16 09:22:46;;;;;;;2.93;1.27;;;27.80;67.00;;;;;;5050226;28;20930;-87
2022/10/16 09:25:15;;;;;;;1.40;0.80;;;27.90;68.70;;;;;;5065807;28;20441;-87
2022/10/16 09:27:43;;;;;;;1.10;0.83;;;28.10;66.30;;;;;;5073408;28;20446;-83
2022/10/16 09:30:17;;;;;;;1.10;0.87;;;28.40;66.70;;;;;;5072668;28;20442;-87
2022/10/16 09:32:48;;;;;;;1.17;1.00;;;28.60;70.50;;;;;;5073469;28;20441;-88
2022/10/16 09:35:18;;;;;;;1.00;0.90;;;28.80;65.40;;;;;;5072898;28;20518;-85
2022/10/16 09:37:48;;;;;;;1.00;0.90;;;29.10;66.20;;;;;;5059539;28;20475;-89
2022/10/16 09:40:26;;;;;;;1.00;0.90;;;29.10;64.60;;;;;;5055679;28;20440;-87
2022/10/16 09:42:58;;;;;;;1.33;1.20;;;29.10;64.90;;;;;;5064553;28;20505;-88
2022/10/16 09:45:27;;;;;;;1.00;0.90;;;29.00;65.70;;;;;;5052698;28;20448;-85
2022/10/16 09:47:54;;;;;;;1.13;0.90;;;28.90;67.30;;;;;;5055346;28;20463;-86
2022/10/16 09:50:24;;;;;;;1.00;0.80;;;28.80;66.50;;;;;;5058302;28;20930;-86
2022/10/16 09:52:52;;;;;;;1.07;0.90;;;29.00;67.60;;;;;;5053319;28;20445;-88
2022/10/16 09:55:20;;;;;;;1.20;0.83;;;29.30;66.00;;;;;;5052791;28;20517;-90
2022/10/16 13:52:00;;;;;;;1.47;0.80;;;26.70;67.50;;;;;;5073241;28;20919;-89
2022/10/16 13:54:29;;;;;;;1.07;0.70;;;26.60;67.40;;;;;;5073222;28;20481;-88
2022/10/16 13:56:56;;;;;;;1.20;0.90;;;26.60;66.90;;;;;;5073142;28;20521;-90
2022/10/16 13:59:28;;;;;;;0.80;0.67;;;26.60;67.40;;;;;;5073279;28;20443;-90
2022/10/16 14:01:57;;;;;;;0.80;0.60;;;26.70;68.50;;;;;;5072770;28;20452;-90
2022/10/16 14:04:26;;;;;;;1.53;0.70;;;26.80;68.90;;;;;;5073049;28;20961;-86
2022/10/16 14:06:53;;;;;;;1.13;0.83;;;26.70;68.80;;;;;;5072810;28;20437;-86
2022/10/16 14:09:26;;;;;;;1.00;0.70;;;26.70;68.80;;;;;;5072925;28;20447;-86
2022/10/16 14:11:56;;;;;;;0.80;0.60;;;26.70;68.80;;;;;;5072822;28;20436;-87
2022/10/16 14:14:24;;;;;;;0.80;0.70;;;26.70;68.90;;;;;;5072705;28;20489;-88
2022/10/16 14:16:51;;;;;;;2.20;0.70;;;26.70;68.90;;;;;;5076401;28;20440;-90
2022/10/16 14:19:22;;;;;;;2.40;0.70;;;26.60;67.50;;;;;;5077051;28;20436;-88
2022/10/16 14:21:50;;;;;;;1.20;0.90;;;26.50;67.40;;;;;;5076567;28;20440;-90
2022/10/16 14:24:28;;;;;;;0.93;0.80;;;26.50;68.40;;;;;;5076885;28;20435;-89
2022/10/16 14:26:56;;;;;;;0.80;0.70;;;26.60;68.60;;;;;;5077060;28;20433;-90
2022/10/16 14:29:24;;;;;;;1.20;1.10;;;26.60;69.40;;;;;;5076549;28;20444;-85
2022/10/16 14:31:59;;;;;;;0.93;0.83;;;26.60;69.00;;;;;;5076848;28;20444;-86
2022/10/16 14:34:28;;;;;;;1.00;0.90;;;26.60;69.10;;;;;;5076436;28;20483;-86
2022/10/16 14:36:55;;;;;;;0.90;0.70;;;26.60;68.90;;;;;;5076815;28;20447;-89
2022/10/16 14:39:26;;;;;;;0.80;0.70;;;26.60;69.00;;;;;;5076292;28;20939;-86
2022/10/16 14:41:56;;;;;;;1.20;1.07;;;26.60;70.20;;;;;;5076287;28;20468;-86
2022/10/16 14:44:29;;;;;;;0.80;0.70;;;26.60;69.00;;;;;;5076347;28;21001;-88
2022/10/16 14:46:55;;;;;;;0.90;0.80;;;26.70;68.90;;;;;;5075887;28;20476;-89
2022/10/16 14:49:24;;;;;;;0.97;0.80;;;26.60;69.30;;;;;;5076085;28;20455;-89
2022/10/16 14:51:51;;;;;;;1.23;0.90;;;26.60;69.00;;;;;;5076065;28;20448;-85
2022/10/16 14:54:19;;;;;;;0.90;0.67;;;26.50;71.50;;;;;;5075791;28;20489;-88
2022/10/16 14:56:51;;;;;;;1.00;0.70;;;26.60;70.00;;;;;;5075989;28;20444;-86
2022/10/16 14:59:22;;;;;;;1.77;0.70;;;26.60;69.80;;;;;;5075970;28;20956;-85
2022/10/16 15:01:49;;;;;;;0.90;0.70;;;26.60;68.80;;;;;;5075967;28;20449;-85
2022/10/16 15:04:17;;;;;;;0.90;0.70;;;26.50;68.80;;;;;;5076206;28;20450;-85
2022/10/16 15:06:45;;;;;;;1.00;0.83;;;26.50;68.10;;;;;;5086029;28;20465;-88
2022/10/16 15:09:12;;;;;;;1.27;0.80;;;26.40;71.50;;;;;;5095942;28;20926;-85
2022/10/16 15:11:40;;;;;;;0.80;0.60;;;26.40;66.80;;;;;;5095955;28;20447;-87
2022/10/16 15:14:11;;;;;;;0.77;0.70;;;26.40;67.90;;;;;;5095698;28;20462;-83
2022/10/16 15:16:38;;;;;;;0.90;0.70;;;26.40;68.20;;;;;;5095443;28;21024;-86
2022/10/16 15:19:05;;;;;;;0.90;0.80;;;26.50;68.40;;;;;;5096258;28;20447;-86
2022/10/16 15:21:33;;;;;;;1.00;0.90;;;26.40;68.30;;;;;;5095993;28;20439;-87
2022/10/16 15:24:01;;;;;;;1.00;0.90;;;26.40;68.30;;;;;;5095522;28;20455;-85
2022/10/16 15:26:30;;;;;;;0.90;0.80;;;26.40;68.40;;;;;;5095027;28;20446;-90
2022/10/16 15:28:57;;;;;;;1.10;0.80;;;26.50;69.00;;;;;;5095960;28;20520;-87
2022/10/16 15:31:25;;;;;;;0.80;0.70;;;26.40;68.80;;;;;;5095941;28;20446;-92
2022/10/16 15:33:57;;;;;;;3.27;0.97;;;26.40;69.90;;;;;;5096446;28;20435;-88
2022/10/16 15:36:29;;;;;;;0.93;0.83;;;26.40;68.50;;;;;;5097218;28;20502;-91
2022/10/16 15:38:57;;;;;;;0.90;0.70;;;26.40;68.50;;;;;;5095853;28;20439;-87
2022/10/16 15:41:24;;;;;;;0.90;0.70;;;26.40;68.40;;;;;;5095468;28;20983;-87
2022/10/16 15:43:52;;;;;;;0.90;0.80;;;26.40;68.70;;;;;;5095968;28;20446;-90
2022/10/16 15:46:20;;;;;;;1.00;0.87;;;26.40;68.60;;;;;;5093734;28;20900;-92
2022/10/16 15:48:49;;;;;;;0.90;0.80;;;26.40;68.60;;;;;;5075193;28;20451;-89
2022/10/16 15:51:17;;;;;;;0.90;0.70;;;26.50;68.70;;;;;;5055450;28;20459;-86
2022/10/16 15:53:46;;;;;;;1.03;0.70;;;26.30;68.40;;;;;;5055111;28;20460;-89
2022/10/16 15:56:13;;;;;;;1.37;0.90;;;26.30;68.50;;;;;;5054858;28;20578;-91
2022/10/16 15:58:40;;;;;;;1.83;0.80;;;26.30;68.60;;;;;;5054858;28;20441;-86
2022/10/16 16:01:09;;;;;;;1.00;0.83;;;26.30;68.60;;;;;;5055131;28;20492;-89
2022/10/16 16:03:36;;;;;;;0.80;0.60;;;26.30;68.50;;;;;;5055167;28;20463;-85
2022/10/16 16:06:08;;;;;;;2.67;0.90;;;26.30;68.70;;;;;;5054950;28;20449;-89
2022/10/16 16:08:36;;;;;;;1.20;0.80;;;26.30;68.60;;;;;;5055432;28;20441;-88
2022/10/16 16:11:04;;;;;;;5.87;0.90;;;26.30;68.60;;;;;;5055143;28;20958;-90
2022/10/16 16:13:31;;;;;;;0.90;0.70;;;26.30;68.70;;;;;;5054629;28;20939;-88
2022/10/16 16:15:58;;;;;;;0.80;0.60;;;26.20;68.60;;;;;;5054727;28;20488;-88
2022/10/16 16:18:25;;;;;;;0.90;0.80;;;26.20;68.70;;;;;;5054984;28;20548;-89
2022/10/16 16:20:52;;;;;;;2.10;0.80;;;26.20;68.70;;;;;;5054390;28;20498;-89
2022/10/16 16:23:21;;;;;;;3.90;0.93;;;26.20;68.70;;;;;;5054406;28;20496;-89
2022/10/16 16:26:04;;;;;;;0.93;0.70;;;26.20;68.70;;;;;;5054686;28;20580;-88
2022/10/16 16:28:31;;;;;;;1.20;0.80;;;26.30;68.80;;;;;;5054787;28;20462;-87
2022/10/16 16:30:58;;;;;;;1.83;0.80;;;26.20;68.80;;;;;;5054194;28;20476;-90
2022/10/16 16:33:25;;;;;;;0.90;0.70;;;26.20;68.80;;;;;;5054653;28;20467;-86
2022/10/16 16:35:56;;;;;;;1.47;0.80;;;26.20;68.90;;;;;;5054541;28;21071;-95
2022/10/16 16:38:24;;;;;;;0.93;0.70;;;26.20;68.80;;;;;;5053809;28;20476;-88
2022/10/16 16:40:52;;;;;;;1.77;0.80;;;26.20;68.90;;;;;;5054079;28;20445;-92
2022/10/16 16:50:22;;;;;;;1.20;0.80;;;26.10;68.80;;;;;;5074020;28;20431;-88
2022/10/16 16:52:48;;;;;;;1.90;0.70;;;26.10;69.10;;;;;;5074999;28;20441;-87
2022/10/16 16:55:18;;;;;;;1.73;0.80;;;26.10;69.00;;;;;;5074108;28;20570;-91
2022/10/16 16:57:44;;;;;;;0.80;0.63;;;26.10;69.00;;;;;;5055261;28;20437;-87